createdAt,value
2018-09-15T00:01:44.907Z,14.80
2018-09-15T00:06:42.276Z,14.30
2018-09-15T00:11:39.701Z,13.33
2018-09-15T00:16:37.104Z,14.80
2018-09-15T00:21:34.503Z,13.63
2018-09-15T00:26:31.997Z,13.10
2018-09-15T00:31:29.385Z,13.73
2018-09-15T00:36:26.782Z,14.70
2018-09-15T00:41:24.212Z,16.53
2018-09-15T00:46:21.608Z,16.30
2018-09-15T00:51:18.995Z,16.20
2018-09-15T00:56:16.370Z,16.20
2018-09-15T01:01:14.086Z,14.63
2018-09-15T01:06:11.527Z,15.30
2018-09-15T01:11:09.071Z,13.90
2018-09-15T01:16:06.462Z,15.90
2018-09-15T01:21:03.859Z,14.00
2018-09-15T01:26:01.256Z,12.93
2018-09-15T01:30:58.656Z,11.37
2018-09-15T01:35:56.052Z,11.50
2018-09-15T01:40:53.441Z,13.40
2018-09-15T01:45:50.830Z,10.03
2018-09-15T01:50:48.251Z,11.07
2018-09-15T01:55:45.674Z,10.10
2018-09-15T02:00:43.091Z,10.33
2018-09-15T02:05:40.480Z,9.60
2018-09-15T02:10:37.865Z,10.07
2018-09-15T02:15:35.248Z,10.50
2018-09-15T02:20:32.611Z,11.33
2018-09-15T02:25:29.975Z,9.60
2018-09-15T02:30:27.350Z,9.70
2018-09-15T02:35:24.747Z,10.20
2018-09-15T02:40:22.203Z,9.67
2018-09-15T02:45:19.587Z,9.40
2018-09-15T02:50:16.982Z,9.63
2018-09-15T02:55:14.350Z,8.70
2018-09-15T03:00:11.762Z,9.63
2018-09-15T03:05:09.134Z,9.60
2018-09-15T03:10:07.660Z,8.57
2018-09-15T03:15:05.096Z,9.43
2018-09-15T03:20:02.552Z,8.80
2018-09-15T03:24:59.942Z,8.97
2018-09-15T03:29:57.339Z,7.80
2018-09-15T03:34:54.703Z,8.10
2018-09-15T03:39:56.597Z,8.30
2018-09-15T03:44:53.980Z,9.57
2018-09-15T03:49:51.355Z,9.80
2018-09-15T03:54:48.831Z,9.10
2018-09-15T03:59:46.204Z,9.40
2018-09-15T04:04:43.592Z,9.30
2018-09-15T04:09:49.212Z,10.10
2018-09-15T04:14:46.713Z,10.70
2018-09-15T04:19:44.095Z,12.27
2018-09-15T04:24:41.576Z,11.70
2018-09-15T04:29:39.023Z,9.83
2018-09-15T04:34:36.498Z,10.83
2018-09-15T04:39:43.008Z,9.67
2018-09-15T04:44:40.444Z,11.03
2018-09-15T04:49:37.864Z,10.53
2018-09-15T04:54:35.277Z,13.00
2018-09-15T04:59:32.690Z,11.77
2018-09-15T05:04:30.087Z,10.73
2018-09-15T05:09:38.182Z,11.10
2018-09-15T05:14:35.645Z,11.87
2018-09-15T05:19:33.108Z,10.53
2018-09-15T05:24:30.888Z,13.77
2018-09-15T05:29:28.367Z,12.93
2018-09-15T05:34:25.803Z,12.93
2018-09-15T05:39:29.866Z,14.40
2018-09-15T05:44:27.322Z,13.40
2018-09-15T05:49:24.745Z,12.90
2018-09-15T05:54:22.156Z,14.90
2018-09-15T05:59:19.544Z,15.80
2018-09-15T06:04:16.955Z,14.83
2018-09-15T06:09:15.894Z,15.60
2018-09-15T06:14:13.356Z,14.33
2018-09-15T06:19:10.747Z,12.03
2018-09-15T06:24:08.231Z,12.73
2018-09-15T06:29:06.827Z,11.90
2018-09-15T06:34:04.278Z,11.50
2018-09-15T06:39:03.358Z,10.90
2018-09-15T06:44:00.772Z,8.90
2018-09-15T06:48:58.191Z,7.30
2018-09-15T06:53:55.931Z,7.33
2018-09-15T06:58:53.393Z,6.67
2018-09-15T07:03:50.802Z,8.33
2018-09-15T07:08:48.226Z,7.00
2018-09-15T07:13:45.727Z,6.77
2018-09-15T07:18:43.172Z,5.50
2018-09-15T07:23:40.667Z,7.40
2018-09-15T07:28:38.087Z,6.40
2018-09-15T07:33:35.511Z,6.53
2018-09-15T07:38:32.943Z,6.57
2018-09-15T07:43:30.337Z,6.57
2018-09-15T07:48:27.768Z,6.33
2018-09-15T07:53:25.158Z,5.70
2018-09-15T07:58:22.540Z,2.50
2018-09-15T08:03:19.966Z,7.00
2018-09-15T08:08:17.375Z,7.50
2018-09-15T08:13:14.831Z,7.10
2018-09-15T08:18:12.276Z,7.97
2018-09-15T08:23:09.702Z,7.90
2018-09-15T08:28:07.080Z,8.27
2018-09-15T08:33:04.512Z,6.33
2018-09-15T08:38:01.955Z,6.63
2018-09-15T08:42:59.360Z,6.33
2018-09-15T08:47:57.621Z,5.23
2018-09-15T08:52:55.019Z,5.57
2018-09-15T08:57:52.428Z,5.77
2018-09-15T09:02:49.834Z,4.70
2018-09-15T09:07:47.256Z,3.23
2018-09-15T09:12:44.696Z,4.83
2018-09-15T09:17:42.086Z,6.73
2018-09-15T09:22:39.488Z,5.23
2018-09-15T09:27:37.016Z,5.67
2018-09-15T09:32:34.536Z,3.70
2018-09-15T09:37:31.935Z,6.13
2018-09-15T09:42:29.403Z,5.57
2018-09-15T09:47:26.835Z,3.30
2018-09-15T09:52:24.241Z,3.33
2018-09-15T09:57:21.641Z,4.13
2018-09-15T10:02:23.426Z,4.80
2018-09-15T10:07:20.854Z,4.73
2018-09-15T10:12:18.292Z,3.40
2018-09-15T10:17:15.687Z,3.33
2018-09-15T10:22:13.083Z,4.83
2018-09-15T10:27:10.521Z,4.10
2018-09-15T10:32:07.994Z,4.30
2018-09-15T10:37:05.407Z,3.73
2018-09-15T10:42:02.887Z,4.60
2018-09-15T10:47:00.411Z,4.27
2018-09-15T10:51:58.290Z,4.17
2018-09-15T10:56:55.678Z,3.80
2018-09-15T11:01:53.111Z,3.40
2018-09-15T11:06:50.514Z,3.37
2018-09-15T11:11:47.948Z,3.60
2018-09-15T11:16:45.354Z,4.47
2018-09-15T11:21:42.743Z,4.70
2018-09-15T11:26:40.148Z,2.87
2018-09-15T11:31:37.567Z,3.23
2018-09-15T11:36:34.993Z,3.70
2018-09-15T11:41:32.459Z,2.70
2018-09-15T11:46:30.179Z,1.77
2018-09-15T11:51:27.615Z,2.80
2018-09-15T11:56:25.018Z,2.53
2018-09-15T12:01:22.421Z,2.23
2018-09-15T12:06:19.865Z,2.87
2018-09-15T12:11:17.291Z,1.33
2018-09-15T12:16:14.744Z,1.70
2018-09-15T12:21:12.168Z,2.00
2018-09-15T12:26:09.580Z,1.70
2018-09-15T12:31:06.982Z,2.03
2018-09-15T12:36:04.419Z,2.00
2018-09-15T12:41:01.862Z,2.30
2018-09-15T12:45:59.283Z,2.27
2018-09-15T12:50:57.057Z,1.40
2018-09-15T12:55:54.475Z,2.23
2018-09-15T13:00:51.891Z,1.87
2018-09-15T13:05:49.283Z,5.93
2018-09-15T13:10:46.830Z,2.63
2018-09-15T13:15:44.235Z,2.37
2018-09-15T13:20:42.168Z,2.40
2018-09-15T13:25:39.600Z,1.80
2018-09-15T13:30:37.019Z,2.37
2018-09-15T13:35:34.434Z,1.50
2018-09-15T13:40:31.843Z,2.00
2018-09-15T13:45:29.236Z,2.73
2018-09-15T13:50:26.655Z,3.93
2018-09-15T13:55:24.071Z,2.53
2018-09-15T14:00:21.499Z,1.90
2018-09-15T14:05:18.938Z,2.80
2018-09-15T14:10:19.007Z,2.60
2018-09-15T14:15:15.012Z,2.47
2018-09-15T14:20:12.415Z,2.77
2018-09-15T14:25:09.815Z,2.23
2018-09-15T14:30:07.262Z,2.20
2018-09-15T14:35:04.753Z,2.87
2018-09-15T14:40:03.222Z,2.60
2018-09-15T14:45:00.624Z,1.30
2018-09-15T14:49:58.050Z,2.70
2018-09-15T14:54:55.460Z,2.40
2018-09-15T14:59:52.882Z,2.57
2018-09-15T15:04:50.299Z,3.20
2018-09-15T15:09:55.670Z,3.07
2018-09-15T15:14:53.076Z,2.37
2018-09-15T15:19:50.486Z,2.80
2018-09-15T15:24:47.907Z,4.63
2018-09-15T15:29:45.323Z,2.40
2018-09-15T15:34:42.766Z,2.80
2018-09-15T15:39:48.226Z,2.30
2018-09-15T15:44:46.084Z,1.30
2018-09-15T15:49:43.675Z,1.40
2018-09-15T15:54:41.127Z,2.10
2018-09-15T15:59:38.580Z,1.37
2018-09-15T16:04:35.986Z,1.60
2018-09-15T16:09:40.469Z,1.77
2018-09-15T16:14:38.027Z,1.80
2018-09-15T16:19:35.503Z,2.10
2018-09-15T16:24:36.909Z,2.30
2018-09-15T16:29:34.435Z,1.87
2018-09-15T16:34:31.935Z,2.87
2018-09-15T16:39:36.858Z,2.43
2018-09-15T16:44:34.351Z,1.63
2018-09-15T16:49:31.811Z,2.53
2018-09-15T16:54:30.370Z,2.00
2018-09-15T16:59:27.763Z,2.00
2018-09-15T17:04:25.174Z,2.40
2018-09-15T17:14:33.849Z,2.57
2018-09-15T17:19:31.247Z,1.90
2018-09-15T17:24:29.684Z,2.27
2018-09-15T17:29:27.308Z,2.50
2018-09-15T17:34:25.810Z,1.83
2018-09-15T17:39:30.056Z,2.10
2018-09-15T17:44:28.636Z,2.13
2018-09-15T17:49:26.054Z,2.43
2018-09-15T17:54:24.944Z,2.07
2018-09-15T17:59:22.403Z,1.50
2018-09-15T18:04:20.099Z,1.50
2018-09-15T18:09:25.270Z,2.30
2018-09-15T18:14:23.771Z,2.07
2018-09-15T18:19:21.171Z,2.07
2018-09-15T18:24:18.562Z,2.10
2018-09-15T18:29:15.946Z,2.30
2018-09-15T18:34:13.331Z,3.43
2018-09-15T18:39:13.584Z,2.00
2018-09-15T18:44:11.090Z,3.20
2018-09-15T18:49:08.483Z,2.73
2018-09-15T18:54:08.564Z,3.33
2018-09-15T18:59:06.263Z,2.93
2018-09-15T19:04:03.671Z,3.10
2018-09-15T19:09:01.060Z,3.20
2018-09-15T19:13:58.487Z,2.93
2018-09-15T19:18:55.871Z,2.97
2018-09-15T19:23:53.244Z,2.80
2018-09-15T19:28:50.615Z,2.93
2018-09-15T19:33:48.296Z,3.00
2018-09-15T19:38:47.474Z,2.90
2018-09-15T19:43:45.068Z,11.27
2018-09-15T19:48:42.450Z,6.27
2018-09-15T19:53:39.831Z,6.63
2018-09-15T19:58:37.221Z,6.07
2018-09-15T20:03:34.611Z,4.90
2018-09-15T20:08:31.994Z,5.20
2018-09-15T20:13:29.415Z,5.50
2018-09-15T20:18:25.711Z,4.87
2018-09-15T20:23:23.086Z,4.60
2018-09-15T20:28:20.471Z,4.27
2018-09-15T20:33:17.890Z,4.80
2018-09-15T20:38:15.274Z,5.20
2018-09-15T20:43:12.718Z,4.77
2018-09-15T20:48:10.095Z,4.90
2018-09-15T20:53:07.507Z,4.40
2018-09-15T20:58:04.980Z,4.70
2018-09-15T21:03:02.365Z,4.30
2018-09-15T21:07:59.790Z,4.50
2018-09-15T21:12:57.246Z,4.47
2018-09-15T21:17:54.625Z,7.10
2018-09-15T21:22:52.010Z,5.20
2018-09-15T21:27:49.412Z,5.40
2018-09-15T21:32:46.795Z,4.70
2018-09-15T21:37:44.512Z,5.70
2018-09-15T21:42:41.937Z,6.47
2018-09-15T21:47:39.343Z,6.53
2018-09-15T21:52:36.748Z,5.30
2018-09-15T21:57:35.316Z,6.70
2018-09-15T22:02:32.702Z,7.10
2018-09-15T22:07:30.083Z,8.70
2018-09-15T22:12:27.550Z,6.70
2018-09-15T22:17:24.980Z,5.93
2018-09-15T22:22:22.506Z,6.73
2018-09-15T22:27:19.802Z,7.83
2018-09-15T22:32:17.215Z,7.90
2018-09-15T22:37:14.598Z,8.40
2018-09-15T22:42:12.030Z,7.80
2018-09-15T22:47:09.404Z,6.83
2018-09-15T22:52:06.812Z,6.40
2018-09-15T22:57:04.406Z,6.63
2018-09-15T23:02:01.823Z,7.40
2018-09-15T23:06:59.567Z,6.90
2018-09-15T23:11:57.411Z,6.80
2018-09-15T23:16:54.792Z,6.40
2018-09-15T23:21:52.186Z,7.80
2018-09-15T23:26:49.630Z,7.70
2018-09-15T23:31:47.021Z,6.50
2018-09-15T23:36:44.407Z,6.40
2018-09-15T23:41:41.794Z,6.87
2018-09-15T23:46:39.171Z,7.70
2018-09-15T23:51:36.582Z,7.67
2018-09-15T23:56:33.963Z,7.70
